Time;durP1;ratioP1;P1;durP2;ratioP2;P2;SDS_P1;SDS_P2;PMS_P1;PMS_P2;Temp;Humidity;BMP_temperature;BMP_pressure;BME280_temperature;BME280_humidity;BME280_pressure;Samples;Min_cycle;Max_cycle;Signal;HPM_P1;HPM_P2
2022/12/20 00:01:33;;;;;;;6.22;3.60;;;;;;;9.53;100.00;67827.31;4992276;28;20062;-87
2022/12/20 00:04:02;;;;;;;7.15;4.10;;;;;;;9.55;100.00;67826.91;5008811;28;20733;-87
2022/12/20 00:06:28;;;;;;;6.75;3.55;;;;;;;;;;4993466;28;20042;-88
2022/12/20 00:08:55;;;;;;;8.60;4.05;;;;;;;9.53;100.00;67824.06;4997139;28;20050;-87
2022/12/20 00:11:21;;;;;;;6.15;3.80;;;;;;;;;;5004386;28;20029;-87
2022/12/20 00:13:46;;;;;;;6.78;3.63;;;;;;;9.62;100.00;67836.94;5002321;28;20038;-87
2022/12/20 00:16:15;;;;;;;6.50;3.45;;;;;;;9.66;100.00;67839.38;5004891;28;20041;-86
2022/12/20 00:18:42;;;;;;;8.38;4.30;;;;;;;9.68;100.00;67841.06;5002199;28;20076;-86
2022/12/20 00:21:09;;;;;;;6.25;3.80;;;;;;;9.66;100.00;67841.47;5010999;28;20052;-86
2022/12/20 00:23:36;;;;;;;5.28;3.22;;;;;;;9.73;100.00;67848.84;5013860;28;20069;-86
2022/12/20 00:26:10;;;;;;;8.05;3.38;;;;;;;9.73;100.00;67849.41;5011289;28;20069;-86
2022/12/20 00:28:37;;;;;;;6.78;3.42;;;;;;;9.79;100.00;67853.56;5025996;28;20132;-86
2022/12/20 00:31:03;;;;;;;6.88;3.45;;;;;;;;;;5001415;28;20046;-86
2022/12/20 00:33:29;;;;;;;5.50;3.78;;;;;;;9.83;100.00;67860.16;4987768;28;20606;-86
2022/12/20 00:35:55;;;;;;;5.40;3.13;;;;;;;9.83;100.00;67857.50;4989335;28;20589;-86
2022/12/20 00:38:21;;;;;;;7.03;3.72;;;;;;;;;;5000711;28;20037;-86
2022/12/20 00:40:46;;;;;;;7.20;3.95;;;;;;;9.80;100.00;67856.78;5011213;28;20522;-86
2022/12/20 00:43:11;;;;;;;7.65;3.60;;;;;;;9.81;100.00;67855.81;5008614;28;20497;-86
2022/12/20 00:45:37;;;;;;;7.15;3.45;;;;;;;9.78;100.00;67849.19;5001428;28;20038;-86
2022/12/20 00:48:02;;;;;;;5.53;3.63;;;;;;;9.80;100.00;67851.47;4993299;28;20038;-86
2022/12/20 00:50:28;;;;;;;5.07;3.08;;;;;;;9.84;100.00;67858.63;5005490;28;20054;-86
2022/12/20 00:52:54;;;;;;;5.15;3.30;;;;;;;9.88;100.00;67865.84;5008849;28;20049;-86
2022/12/20 00:55:19;;;;;;;9.18;3.60;;;;;;;;;;4991985;28;20042;-86
2022/12/20 00:57:44;;;;;;;8.23;3.92;;;;;;;9.87;100.00;67862.63;5006114;28;20046;-87
2022/12/20 01:00:10;;;;;;;5.07;2.88;;;;;;;9.90;100.00;67868.13;5008851;28;20081;-86
2022/12/20 01:02:36;;;;;;;5.60;3.28;;;;;;;9.90;100.00;67862.81;5017348;28;20446;-86
2022/12/20 01:05:01;;;;;;;6.03;2.95;;;;;;;;;;5009695;28;20089;-86
2022/12/20 01:07:26;;;;;;;5.75;3.10;;;;;;;9.91;100.00;67869.25;5007768;28;20036;-86
2022/12/20 01:09:51;;;;;;;6.28;3.58;;;;;;;9.92;100.00;67867.72;5007446;28;20037;-86
2022/12/20 01:12:18;;;;;;;5.72;3.17;;;;;;;9.91;100.00;67864.50;4989302;28;20043;-86
2022/12/20 01:14:43;;;;;;;7.22;3.25;;;;;;;9.94;100.00;67873.22;4996537;28;20069;-86
2022/12/20 01:17:08;;;;;;;6.90;3.67;;;;;;;9.93;100.00;67869.44;5006916;28;20629;-86
2022/12/20 01:19:34;;;;;;;8.88;3.42;;;;;;;9.97;100.00;67873.41;5008415;28;20489;-86
2022/12/20 01:21:59;;;;;;;5.25;2.92;;;;;;;9.99;100.00;67875.66;5015174;28;20034;-86
2022/12/20 01:24:25;;;;;;;5.63;3.22;;;;;;;10.00;100.00;67876.78;4994115;28;20126;-86
2022/12/20 01:26:50;;;;;;;6.55;2.92;;;;;;;10.01;100.00;67877.94;5008059;28;20038;-86
2022/12/20 01:29:16;;;;;;;6.80;3.30;;;;;;;10.02;100.00;67879.06;4991009;28;20066;-86
2022/12/20 01:31:41;;;;;;;6.97;3.55;;;;;;;9.99;100.00;67875.66;4998576;28;20135;-86
2022/12/20 01:34:07;;;;;;;8.25;2.65;;;;;;;;;;4988113;28;20030;-86
2022/12/20 01:36:34;;;;;;;5.40;2.67;;;;;;;10.09;100.00;67889.66;5002122;28;20060;-86
2022/12/20 01:39:07;;;;;;;4.85;2.65;;;;;;;10.09;99.78;67886.44;4993126;28;20079;-86
2022/12/20 01:41:33;;;;;;;4.50;2.80;;;;;;;10.08;99.87;67888.53;4988335;28;21298;-86
2022/12/20 01:44:01;;;;;;;6.07;2.47;;;;;;;10.11;99.77;67891.94;5005532;28;20045;-86
2022/12/20 01:46:30;;;;;;;5.10;3.00;;;;;;;10.14;98.94;67892.69;4993528;28;20089;-86
2022/12/20 01:49:19;;;;;;;7.65;2.83;;;;;;;10.16;99.08;67897.59;4993348;28;20034;-85
2022/12/20 01:51:54;;;;;;;5.47;3.08;;;;;;;10.16;98.47;67897.59;5019243;28;20046;-87
2022/12/20 01:54:31;;;;;;;4.45;2.80;;;;;;;10.20;98.45;67898.34;4988903;28;20046;-86
2022/12/20 01:57:02;;;;;;;5.22;2.75;;;;;;;10.23;98.21;67904.41;5003166;28;20041;-86
2022/12/20 01:59:30;;;;;;;5.50;2.55;;;;;;;10.29;97.87;67911.81;4995113;28;20119;-87
2022/12/20 02:01:58;;;;;;;5.93;2.63;;;;;;;10.32;97.80;67911.97;4987794;28;20042;-86
2022/12/20 02:04:24;;;;;;;4.85;3.03;;;;;;;10.33;97.58;67907.81;5000447;28;20410;-87
2022/12/20 02:06:49;;;;;;;6.15;2.78;;;;;;;10.34;97.37;67916.91;4990263;28;20050;-86
2022/12/20 02:09:15;;;;;;;4.82;2.70;;;;;;;10.30;97.64;67909.69;5007148;28;20037;-86
2022/12/20 02:11:54;;;;;;;5.35;2.72;;;;;;;;;;4991771;28;20049;-86
2022/12/20 02:14:44;;;;;;;;;;;;;;;10.33;97.92;67915.78;4999525;28;20457;-86
2022/12/20 02:17:24;;;;;;;5.28;2.63;;;;;;;10.26;98.72;67907.81;4998748;28;20023;-86
2022/12/20 02:20:21;;;;;;;3.92;2.20;;;;;;;10.33;98.86;67913.69;5005221;28;20042;-86
2022/12/20 02:23:03;;;;;;;4.10;2.00;;;;;;;10.37;98.66;67917.66;5008253;28;20096;-86
2022/12/20 02:25:51;;;;;;;5.53;2.85;;;;;;;10.37;98.92;67918.22;5003043;28;20136;-86
2022/12/20 02:28:53;;;;;;;4.80;2.30;;;;;;;10.42;99.55;67923.34;5003092;28;20034;-86
2022/12/20 02:31:25;;;;;;;5.03;2.60;;;;;;;10.42;99.81;67923.34;4987774;28;20042;-86
2022/12/20 02:33:54;;;;;;;7.32;2.95;;;;;;;10.41;100.00;67919.53;4986595;28;20114;-86
2022/12/20 02:36:19;;;;;;;8.52;2.58;;;;;;;10.36;100.00;67916.53;5007028;28;20520;-86
2022/12/20 02:38:45;;;;;;;6.18;3.25;;;;;;;10.31;100.00;67910.84;4997023;28;20045;-87
2022/12/20 02:41:25;;;;;;;7.10;2.97;;;;;;;;;;4988738;28;20516;-87
2022/12/20 02:46:47;;;;;;;6.30;3.33;;;;;;;10.06;100.00;67880.38;5004977;28;20053;-87
2022/12/20 02:49:16;;;;;;;5.65;2.70;;;;;;;10.00;100.00;67878.88;4991440;28;20886;-86
2022/12/20 02:51:44;;;;;;;5.70;3.30;;;;;;;9.96;100.00;67872.25;5000754;28;20682;-87
2022/12/20 02:54:10;;;;;;;4.55;3.10;;;;;;;9.90;100.00;67865.47;5005598;28;20042;-87
2022/12/20 02:56:48;;;;;;;6.22;3.38;;;;;;;9.85;100.00;67859.78;4996263;28;20052;-87
2022/12/20 02:59:22;;;;;;;6.55;3.28;;;;;;;9.79;100.00;67853.00;4995815;28;20096;-87
2022/12/20 03:01:50;;;;;;;6.07;3.75;;;;;;;9.73;100.00;67848.84;5008045;28;20561;-87
2022/12/20 03:04:17;;;;;;;6.87;3.47;;;;;;;9.68;100.00;67841.63;5007042;28;20100;-87
2022/12/20 03:06:55;;;;;;;5.18;3.15;;;;;;;;;;4995042;28;20284;-86
2022/12/20 03:09:21;;;;;;;5.72;3.92;;;;;;;9.60;100.00;67834.66;4999161;28;20131;-86
2022/12/20 03:11:46;;;;;;;6.30;3.50;;;;;;;9.56;100.00;67830.13;5002291;28;20498;-86
2022/12/20 03:14:11;;;;;;;5.97;4.07;;;;;;;9.55;100.00;67829.56;4989713;28;20132;-86
2022/12/20 03:16:36;;;;;;;5.57;4.32;;;;;;;;;;4998090;28;20048;-86
2022/12/20 03:19:02;;;;;;;7.72;3.67;;;;;;;9.45;100.00;67818.22;4989813;28;20042;-86
2022/12/20 03:21:27;;;;;;;7.43;5.00;;;;;;;9.41;100.00;67813.69;4993640;28;20050;-86
2022/12/20 03:24:09;;;;;;;6.93;4.13;;;;;;;9.35;100.00;67804.22;5001579;28;20052;-86
2022/12/20 03:26:35;;;;;;;6.32;4.40;;;;;;;9.30;100.00;67801.78;5003385;28;20108;-85
2022/12/20 03:29:01;;;;;;;7.95;4.70;;;;;;;9.27;100.00;67798.94;4988537;28;20038;-86
2022/12/20 03:31:26;;;;;;;8.82;5.63;;;;;;;9.22;100.00;67793.28;4987624;28;20034;-86
2022/12/20 03:33:52;;;;;;;8.45;5.00;;;;;;;9.20;100.00;67790.44;4998209;28;20057;-86
2022/12/20 03:36:22;;;;;;;6.75;5.05;;;;;;;9.16;100.00;67786.47;5007499;28;20041;-86
2022/12/20 03:38:47;;;;;;;7.38;6.03;;;;;;;9.09;100.00;67777.97;5005022;28;20042;-86
2022/12/20 03:41:13;;;;;;;7.28;5.30;;;;;;;9.07;100.00;67776.28;5002284;28;20038;-86
2022/12/20 03:43:38;;;;;;;8.15;5.38;;;;;;;9.06;100.00;67775.13;4987363;28;20065;-87
2022/12/20 03:46:04;;;;;;;7.13;5.40;;;;;;;9.00;100.00;67768.91;4984729;28;20046;-86
2022/12/20 03:48:29;;;;;;;8.45;5.65;;;;;;;8.95;100.00;67768.56;4993501;28;20070;-86
2022/12/20 03:50:54;;;;;;;7.60;5.85;;;;;;;8.90;100.00;67757.59;5010152;28;20401;-88
2022/12/20 03:53:20;;;;;;;8.43;5.00;;;;;;;8.87;100.00;67753.63;5016192;28;20606;-86
2022/12/20 03:55:45;;;;;;;10.60;5.68;;;;;;;8.82;100.00;67749.09;5019259;28;20108;-86
2022/12/20 03:58:10;;;;;;;10.05;6.95;;;;;;;8.83;100.00;67749.66;4990743;28;20038;-85
2022/12/20 04:00:36;;;;;;;11.85;6.72;;;;;;;8.81;100.00;67747.97;5001319;28;20046;-86
2022/12/20 04:03:01;;;;;;;9.48;7.07;;;;;;;8.78;100.00;67749.88;5019204;28;20065;-88
2022/12/20 04:05:26;;;;;;;11.38;6.57;;;;;;;8.75;100.00;67741.16;5010796;28;20042;-85
2022/12/20 04:07:52;;;;;;;10.40;6.25;;;;;;;8.75;100.00;67741.16;5010824;28;20038;-87
2022/12/20 04:10:17;;;;;;;10.73;6.82;;;;;;;8.76;100.00;67747.03;5014089;28;20455;-88
2022/12/20 04:12:42;;;;;;;13.93;6.82;;;;;;;8.75;100.00;67740.59;5005316;28;20065;-86
2022/12/20 04:15:08;;;;;;;10.13;7.40;;;;;;;8.74;100.00;67737.34;5025855;28;20048;-86
2022/12/20 04:17:33;;;;;;;10.85;7.68;;;;;;;;;;5004056;28;20065;-89
2022/12/20 04:20:17;;;;;;;10.10;6.73;;;;;;;8.76;100.00;67741.72;5000026;28;20050;-86
2022/12/20 04:22:50;;;;;;;10.75;7.18;;;;;;;8.76;100.00;67739.06;5021028;28;20649;-86
2022/12/20 04:25:18;;;;;;;11.95;7.07;;;;;;;8.77;100.00;67740.75;4991503;28;20077;-85
2022/12/20 04:27:43;;;;;;;10.95;7.07;;;;;;;8.78;100.00;67744.56;5005071;28;20494;-85
2022/12/20 04:30:09;;;;;;;12.05;7.90;;;;;;;8.78;100.00;67744.56;5017815;28;20098;-86
2022/12/20 04:32:35;;;;;;;12.15;7.43;;;;;;;8.79;100.00;67745.69;5016907;28;20070;-87
2022/12/20 04:35:00;;;;;;;15.00;7.90;;;;;;;8.81;100.00;67747.41;5014819;28;20080;-90
2022/12/20 04:37:26;;;;;;;10.68;7.68;;;;;;;8.85;100.00;67751.34;5011720;28;20034;-85
2022/12/20 04:39:51;;;;;;;13.48;8.30;;;;;;;8.87;100.00;67753.63;5011305;28;20042;-86
2022/12/20 04:42:16;;;;;;;12.85;7.68;;;;;;;8.89;100.00;67753.81;5010843;28;20069;-88
2022/12/20 04:44:42;;;;;;;13.02;6.97;;;;;;;8.92;100.00;67759.84;5001486;28;20049;-85
2022/12/20 04:47:08;;;;;;;11.50;7.45;;;;;;;8.96;100.00;67763.81;5008236;28;20041;-86
2022/12/20 04:49:34;;;;;;;13.23;7.78;;;;;;;8.99;100.00;67764.56;4999652;28;20038;-86
2022/12/20 04:53:46;;;;;;;10.80;7.72;;;;;;;9.01;100.00;67766.84;5003021;28;20043;-86
2022/12/20 04:54:45;;;;;;;11.52;7.53;;;;;;;9.03;100.00;67769.66;5016365;28;20493;-86
2022/12/20 04:57:10;;;;;;;11.38;6.88;;;;;;;;;;5009666;28;20042;-88
2022/12/20 04:59:36;;;;;;;11.25;6.35;;;;;;;9.05;100.00;67771.34;5008151;28;20068;-85
2022/12/20 05:02:01;;;;;;;10.52;6.05;;;;;;;9.08;100.00;67772.09;5011132;28;20041;-86
2022/12/20 05:04:26;;;;;;;12.85;6.30;;;;;;;9.14;100.00;67784.22;5010069;28;20522;-86
2022/12/20 05:06:52;;;;;;;8.02;6.10;;;;;;;9.17;100.00;67784.38;4999961;28;20173;-86
2022/12/20 05:09:17;;;;;;;12.02;6.75;;;;;;;9.24;100.00;67792.91;5014274;28;20053;-88
2022/12/20 05:11:43;;;;;;;9.45;5.75;;;;;;;9.29;100.00;67800.66;5022674;28;20044;-87
2022/12/20 05:14:08;;;;;;;8.98;5.82;;;;;;;;;;5010798;28;20041;-86
2022/12/20 05:16:34;;;;;;;11.57;5.72;;;;;;;9.36;100.00;67808.03;5009450;28;20651;-89
2022/12/20 05:19:00;;;;;;;9.95;5.05;;;;;;;9.42;100.00;67815.38;5007514;28;20061;-88
2022/12/20 05:26:53;;;;;;;11.32;5.10;;;;;;;9.57;100.00;67829.16;5010751;28;20056;-85
2022/12/20 05:29:19;;;;;;;6.28;4.38;;;;;;;9.61;100.00;67833.72;5006265;28;20038;-86
2022/12/20 05:31:44;;;;;;;9.32;4.93;;;;;;;9.65;100.00;67840.34;5010201;28;20045;-85
2022/12/20 05:34:10;;;;;;;9.30;5.65;;;;;;;9.66;100.00;67836.16;5003589;28;20038;-85
2022/12/20 05:36:35;;;;;;;8.70;4.25;;;;;;;;;;5001881;28;20038;-85
2022/12/20 05:39:00;;;;;;;7.55;4.30;;;;;;;;;;5011595;28;20054;-86
2022/12/20 05:41:25;;;;;;;9.77;4.47;;;;;;;9.74;100.00;67844.66;5001416;28;20042;-84
2022/12/20 05:43:51;;;;;;;9.02;4.50;;;;;;;9.74;100.00;67850.53;4992328;28;20042;-85
2022/12/20 05:46:16;;;;;;;6.78;4.07;;;;;;;9.77;100.00;67851.28;5003181;28;20107;-87
2022/12/20 05:48:42;;;;;;;6.85;4.40;;;;;;;9.82;100.00;67856.38;5006320;28;20054;-84
2022/12/20 05:51:08;;;;;;;8.00;4.30;;;;;;;9.82;100.00;67859.03;5005730;28;20052;-87
2022/12/20 05:53:33;;;;;;;6.68;4.07;;;;;;;9.86;100.00;67861.47;4999910;28;20108;-87
2022/12/20 05:56:00;;;;;;;7.60;3.92;;;;;;;9.86;100.00;67863.56;5006800;28;20045;-86
2022/12/20 05:58:25;;;;;;;8.95;4.03;;;;;;;9.85;100.00;67862.44;5006443;28;20045;-91
2022/12/20 06:00:51;;;;;;;9.77;4.13;;;;;;;9.87;100.00;67864.72;5004015;28;20050;-85
2022/12/20 06:03:16;;;;;;;6.35;4.03;;;;;;;9.85;100.00;67860.34;5002420;28;20360;-87
2022/12/20 06:05:42;;;;;;;5.88;3.60;;;;;;;;;;5001834;28;20041;-85
2022/12/20 06:08:08;;;;;;;6.60;4.00;;;;;;;9.86;100.00;67863.56;5009103;28;20054;-86
2022/12/20 06:10:34;;;;;;;6.82;4.28;;;;;;;9.85;100.00;67859.78;5002269;28;20042;-85
2022/12/20 06:13:01;;;;;;;7.38;4.30;;;;;;;9.85;100.00;67862.44;5008014;28;20073;-85
2022/12/20 06:15:26;;;;;;;6.25;4.65;;;;;;;9.84;100.00;67861.31;5011139;28;20044;-85
2022/12/20 06:17:52;;;;;;;6.60;4.72;;;;;;;9.84;100.00;67861.31;5000662;28;20050;-86
2022/12/20 06:20:17;;;;;;;8.27;4.30;;;;;;;9.83;100.00;67857.50;4999807;28;20133;-84
2022/12/20 06:22:42;;;;;;;8.85;4.68;;;;;;;9.83;100.00;67860.16;4997775;28;20053;-88
2022/12/20 06:25:08;;;;;;;6.28;4.82;;;;;;;9.83;100.00;67857.50;5002214;28;20083;-85
2022/12/20 06:27:35;;;;;;;8.07;4.18;;;;;;;9.82;100.00;67859.03;5000779;28;20038;-87
2022/12/20 06:30:02;;;;;;;7.95;4.45;;;;;;;9.80;100.00;67856.78;4996696;28;20057;-85
2022/12/20 06:32:27;;;;;;;8.70;4.80;;;;;;;9.78;100.00;67849.78;5002430;28;20054;-85
2022/12/20 06:34:53;;;;;;;6.07;4.10;;;;;;;9.78;100.00;67851.84;5006752;28;20070;-85
2022/12/20 06:37:18;;;;;;;8.73;4.47;;;;;;;9.76;100.00;67852.25;4997124;28;20406;-86
2022/12/20 06:39:44;;;;;;;8.80;4.47;;;;;;;9.77;100.00;67850.72;5011986;28;20151;-84
2022/12/20 06:42:09;;;;;;;6.43;4.22;;;;;;;9.76;100.00;67852.81;4996854;28;20050;-86
2022/12/20 06:44:34;;;;;;;7.50;4.70;;;;;;;9.75;100.00;67851.09;4997226;28;20046;-85
2022/12/20 06:47:00;;;;;;;6.47;4.38;;;;;;;;;;5003018;28;20034;-85
2022/12/20 06:49:25;;;;;;;8.85;5.10;;;;;;;9.72;100.00;67848.25;4998647;28;20521;-85
2022/12/20 06:51:51;;;;;;;8.15;4.97;;;;;;;9.68;100.00;67844.28;5007919;28;20047;-85
2022/12/20 06:54:16;;;;;;;9.02;5.15;;;;;;;;;;5009162;28;20029;-85
2022/12/20 06:56:41;;;;;;;10.40;4.90;;;;;;;9.69;100.00;67844.84;5003728;28;20140;-85
2022/12/20 06:59:06;;;;;;;8.35;4.60;;;;;;;;;;5012861;28;20108;-85
2022/12/20 07:01:32;;;;;;;8.40;5.40;;;;;;;9.69;100.00;67842.19;4998996;28;20049;-85
2022/12/20 07:03:57;;;;;;;7.93;4.57;;;;;;;9.67;100.00;67837.28;4985032;28;20286;-85
2022/12/20 07:06:23;;;;;;;9.13;5.65;;;;;;;9.67;100.00;67837.84;5002004;28;20044;-85
2022/12/20 07:08:48;;;;;;;11.18;6.70;;;;;;;9.67;100.00;67837.28;5004893;28;20062;-85
2022/12/20 07:11:14;;;;;;;11.05;6.15;;;;;;;9.65;100.00;67838.25;4989641;28;20058;-85
2022/12/20 07:13:39;;;;;;;10.07;6.40;;;;;;;9.60;100.00;67835.22;4987654;28;20043;-85
2022/12/20 07:16:05;;;;;;;9.30;6.32;;;;;;;9.59;100.00;67834.09;4982903;28;20717;-85
2022/12/20 07:18:31;;;;;;;8.93;5.95;;;;;;;9.60;100.00;67834.66;4991866;28;20050;-85
2022/12/20 07:21:00;;;;;;;10.10;5.35;;;;;;;9.60;100.00;67832.00;5009025;28;20080;-85
2022/12/20 07:23:26;;;;;;;10.60;6.10;;;;;;;9.60;100.00;67832.56;4998330;28;20030;-85
2022/12/20 07:25:56;;;;;;;10.40;5.88;;;;;;;9.57;100.00;67829.16;4999028;28;20045;-85
2022/12/20 07:28:23;;;;;;;10.85;5.28;;;;;;;9.58;100.00;67837.69;5004520;28;20095;-85
2022/12/20 07:30:48;;;;;;;10.45;5.45;;;;;;;;;;4995622;28;20039;-85
2022/12/20 07:33:14;;;;;;;9.55;5.53;;;;;;;9.54;100.00;67828.44;4991976;28;20058;-85
2022/12/20 07:35:39;;;;;;;8.45;4.78;;;;;;;;;;4994025;28;20398;-85
2022/12/20 07:38:05;;;;;;;8.68;5.85;;;;;;;9.56;100.00;67830.69;5007697;28;20046;-85
2022/12/20 07:40:30;;;;;;;7.40;5.30;;;;;;;9.53;100.00;67827.31;4997945;28;20045;-85
2022/12/20 07:42:56;;;;;;;8.27;4.93;;;;;;;9.56;100.00;67830.69;4999048;28;20089;-85
2022/12/20 07:45:21;;;;;;;7.78;5.15;;;;;;;9.54;100.00;67825.75;5008285;28;20040;-85
2022/12/20 07:47:46;;;;;;;8.00;5.00;;;;;;;9.52;100.00;67822.94;5011031;28;20553;-85
2022/12/20 07:50:12;;;;;;;8.45;4.32;;;;;;;9.50;100.00;67823.91;5008841;28;20037;-85
2022/12/20 07:52:40;;;;;;;11.50;4.65;;;;;;;9.50;100.00;67823.91;5008063;28;20045;-85
2022/12/20 07:55:08;;;;;;;7.60;4.30;;;;;;;9.50;100.00;67823.91;5013290;28;20046;-85
2022/12/20 07:57:41;;;;;;;7.85;4.55;;;;;;;;;;4999466;28;20718;-85
2022/12/20 08:00:08;;;;;;;7.00;3.78;;;;;;;9.49;100.00;67823.34;5005728;28;20135;-85
2022/12/20 08:03:14;;;;;;;8.38;4.15;;;;;;;9.50;100.00;67823.91;4995090;28;20185;-85
2022/12/20 08:05:45;;;;;;;7.97;4.50;;;;;;;9.47;100.00;67817.84;5006135;28;20052;-85
2022/12/20 08:08:11;;;;;;;7.30;3.90;;;;;;;9.46;100.00;67819.34;5008368;28;20382;-85
2022/12/20 08:10:37;;;;;;;7.65;4.50;;;;;;;9.47;100.00;67818.41;4988412;28;20045;-85
2022/12/20 08:13:04;;;;;;;7.97;4.00;;;;;;;9.51;100.00;67825.03;5001401;28;20157;-85
2022/12/20 08:15:30;;;;;;;6.22;4.50;;;;;;;9.53;100.00;67827.31;5019923;28;20044;-85
2022/12/20 08:17:55;;;;;;;7.03;4.18;;;;;;;9.53;100.00;67827.31;5003550;28;20042;-85
2022/12/20 08:20:21;;;;;;;5.50;3.75;;;;;;;9.55;100.00;67826.91;5007757;28;20125;-85
2022/12/20 08:22:46;;;;;;;6.13;3.00;;;;;;;9.65;100.00;67840.34;4999169;28;20046;-85
2022/12/20 08:25:12;;;;;;;5.65;3.63;;;;;;;9.68;100.00;67841.63;5008835;28;20065;-85
2022/12/20 08:27:37;;;;;;;6.57;3.72;;;;;;;9.72;100.00;67848.25;5008488;28;20053;-85
2022/12/20 08:30:04;;;;;;;8.75;3.58;;;;;;;9.76;100.00;67850.16;5004336;28;20042;-85
2022/12/20 08:32:30;;;;;;;6.25;4.88;;;;;;;9.82;100.00;67859.03;5010446;28;20048;-85
2022/12/20 08:34:55;;;;;;;6.82;3.95;;;;;;;9.88;100.00;67863.75;5006443;28;20121;-85
2022/12/20 08:37:20;;;;;;;5.75;3.40;;;;;;;9.92;100.00;67870.38;5011770;28;20754;-85
2022/12/20 08:39:46;;;;;;;6.15;3.50;;;;;;;9.96;100.00;67871.69;5000912;28;20447;-85
2022/12/20 08:42:11;;;;;;;4.88;3.50;;;;;;;10.00;100.00;67878.88;5001980;28;20038;-85
2022/12/20 08:44:36;;;;;;;5.82;3.85;;;;;;;;;;5009163;28;20030;-85
2022/12/20 08:47:02;;;;;;;6.50;3.92;;;;;;;;;;5008001;28;20038;-85
2022/12/20 08:49:27;;;;;;;7.07;3.55;;;;;;;10.08;100.00;67887.97;4999782;28;20038;-85
2022/12/20 08:51:53;;;;;;;5.50;3.65;;;;;;;10.12;100.00;67890.41;5011048;28;20045;-85
2022/12/20 08:54:18;;;;;;;7.30;3.65;;;;;;;10.17;100.00;67898.72;5002982;28;20042;-85
2022/12/20 08:56:43;;;;;;;5.45;3.58;;;;;;;10.21;100.00;67899.47;4997939;28;20034;-85
2022/12/20 08:59:09;;;;;;;7.38;3.30;;;;;;;10.24;100.00;67906.13;5002937;28;20124;-85
2022/12/20 09:01:34;;;;;;;6.13;3.80;;;;;;;10.30;100.00;67912.38;4987662;28;20520;-85
2022/12/20 09:04:00;;;;;;;5.78;3.33;;;;;;;10.32;100.00;67914.63;4992777;28;20042;-85
2022/12/20 09:06:25;;;;;;;6.95;3.42;;;;;;;10.38;100.00;67922.00;4987128;28;20526;-85
2022/12/20 09:08:51;;;;;;;5.22;2.72;;;;;;;10.50;100.00;67935.06;5003231;28;20042;-85
2022/12/20 09:11:22;;;;;;;5.43;3.17;;;;;;;10.54;100.00;67934.28;4992757;28;20122;-85
2022/12/20 09:13:49;;;;;;;8.63;4.30;;;;;;;10.63;100.00;67949.25;4996820;28;20077;-85
2022/12/20 09:16:18;;;;;;;6.18;3.03;;;;;;;10.74;100.00;67961.16;4994305;28;20037;-85
2022/12/20 09:18:50;;;;;;;5.68;3.00;;;;;;;10.78;99.59;67966.25;4994424;28;20046;-85
2022/12/20 09:21:16;;;;;;;4.40;2.17;;;;;;;10.83;99.15;67971.38;5004880;28;20038;-85
2022/12/20 09:23:41;;;;;;;5.05;2.47;;;;;;;10.90;98.55;67978.75;5014529;28;20204;-85
2022/12/20 09:26:10;;;;;;;5.32;2.47;;;;;;;10.96;97.98;67982.91;5005472;28;20167;-85
2022/12/20 09:28:36;;;;;;;3.95;2.40;;;;;;;11.02;97.49;67987.63;5004025;28;20402;-84
2022/12/20 09:31:05;;;;;;;5.22;2.58;;;;;;;11.04;97.42;67989.88;4994055;28;20050;-85
2022/12/20 09:33:31;;;;;;;4.30;2.47;;;;;;;11.06;97.35;67994.25;5006524;28;20096;-85
2022/12/20 09:35:57;;;;;;;6.13;2.58;;;;;;;;;;5007517;28;20053;-85
2022/12/20 09:38:22;;;;;;;9.32;2.63;;;;;;;11.04;98.00;67994.66;5004347;28;20042;-85
2022/12/20 09:40:55;;;;;;;4.85;2.22;;;;;;;11.10;97.22;67998.78;4993037;28;20045;-85
2022/12/20 09:43:21;;;;;;;11.52;2.50;;;;;;;11.08;97.60;67999.19;4988406;28;20049;-85
2022/12/20 09:45:51;;;;;;;4.28;2.15;;;;;;;11.04;98.53;67995.22;4989062;28;20034;-86
2022/12/20 09:48:27;;;;;;;4.82;3.33;;;;;;;10.98;99.99;67983.06;4998382;28;20041;-85
2022/12/20 09:51:16;;;;;;;4.75;2.30;;;;;;;10.87;100.00;67973.25;5018034;28;20038;-85
2022/12/20 09:53:54;;;;;;;4.75;2.97;;;;;;;10.72;100.00;67958.91;4997970;28;20050;-85
2022/12/20 09:56:30;;;;;;;6.25;2.50;;;;;;;10.54;100.00;67936.38;4987306;28;20050;-85
2022/12/20 09:59:05;;;;;;;5.00;3.25;;;;;;;;;;5003926;28;20498;-85
2022/12/20 10:01:35;;;;;;;5.88;3.38;;;;;;;10.35;100.00;67915.38;5009364;28;20088;-85
2022/12/20 10:04:02;;;;;;;6.85;3.53;;;;;;;;;;5000116;28;20046;-85
2022/12/20 10:06:51;;;;;;;6.15;3.38;;;;;;;10.23;100.00;67904.97;4995869;28;20522;-85
2022/12/20 10:09:28;;;;;;;7.78;3.58;;;;;;;10.21;100.00;67907.47;4993865;28;20126;-85
2022/12/20 10:12:00;;;;;;;7.32;3.40;;;;;;;;;;5022665;28;20070;-86
2022/12/20 10:14:52;;;;;;;4.93;3.45;;;;;;;10.09;100.00;67889.66;5005497;28;20048;-85
2022/12/20 10:17:43;;;;;;;7.20;3.38;;;;;;;10.09;100.00;67887.00;4987806;28;20049;-85
2022/12/20 10:20:12;;;;;;;5.55;3.35;;;;;;;10.09;100.00;67886.44;5006927;28;20094;-85
2022/12/20 10:22:59;;;;;;;7.57;3.83;;;;;;;10.10;100.00;67890.25;5002466;28;20045;-85
2022/12/20 10:25:33;;;;;;;5.57;3.47;;;;;;;;;;5000725;28;20034;-85
2022/12/20 10:28:09;;;;;;;9.50;4.03;;;;;;;10.16;100.00;67894.94;4990269;28;20049;-85
2022/12/20 10:30:35;;;;;;;7.97;4.13;;;;;;;10.19;100.00;67899.88;4999638;28;20037;-85
2022/12/20 10:33:01;;;;;;;5.63;3.45;;;;;;;10.26;100.00;67908.38;5001188;28;20084;-85
2022/12/20 10:35:35;;;;;;;7.13;3.40;;;;;;;;;;5000941;28;20531;-85
2022/12/20 10:38:12;;;;;;;5.05;3.15;;;;;;;10.31;100.00;67913.50;4996564;28;20060;-85
2022/12/20 10:40:47;;;;;;;3.53;2.33;;;;;;;10.31;100.00;67914.06;5008681;28;20030;-85
2022/12/20 10:43:22;;;;;;;5.25;2.70;;;;;;;10.30;100.00;67909.69;5009403;28;20050;-85
2022/12/20 10:45:59;;;;;;;3.78;2.95;;;;;;;10.29;100.00;67905.91;5006673;28;20060;-85
2022/12/20 10:48:32;;;;;;;6.90;3.10;;;;;;;10.26;100.00;67908.38;5005694;28;20035;-85
2022/12/20 10:51:01;;;;;;;5.97;3.40;;;;;;;10.26;100.00;67902.50;5021390;28;20133;-85
2022/12/20 10:53:29;;;;;;;7.93;3.45;;;;;;;10.21;100.00;67902.13;4989494;28;20050;-85
2022/12/20 10:56:12;;;;;;;6.45;3.08;;;;;;;10.21;100.00;67899.47;4986574;28;20138;-85
2022/12/20 10:58:37;;;;;;;6.55;3.88;;;;;;;10.23;100.00;67896.44;4984362;28;20046;-85
2022/12/20 11:01:11;;;;;;;7.60;4.45;;;;;;;10.21;100.00;67896.81;4987081;28;20499;-85
2022/12/20 11:04:06;;;;;;;6.28;3.70;;;;;;;10.23;100.00;67901.75;4989362;28;20043;-85
2022/12/20 11:06:37;;;;;;;8.50;4.15;;;;;;;10.27;100.00;67909.53;4988644;28;20050;-85
2022/12/20 11:09:24;;;;;;;6.90;4.28;;;;;;;10.30;100.00;67909.69;4979870;28;20047;-85
2022/12/20 11:11:57;;;;;;;6.50;3.55;;;;;;;;;;4972504;28;20051;-85
2022/12/20 11:14:22;;;;;;;7.07;3.80;;;;;;;;;;4982989;28;20118;-85
2022/12/20 11:16:50;;;;;;;6.35;3.58;;;;;;;10.50;100.00;67931.81;4978563;28;20132;-86
2022/12/20 11:19:34;;;;;;;5.63;3.20;;;;;;;10.56;100.00;67941.31;4980639;28;20054;-85
2022/12/20 11:22:02;;;;;;;4.88;3.58;;;;;;;;;;4989457;28;20065;-85
2022/12/20 11:24:44;;;;;;;5.43;3.25;;;;;;;10.60;100.00;67946.41;4998316;28;20061;-85
2022/12/20 11:27:42;;;;;;;6.90;3.80;;;;;;;10.57;100.00;67940.34;5006876;28;20726;-85
2022/12/20 11:30:16;;;;;;;5.05;3.20;;;;;;;10.59;100.00;67942.63;5028161;28;20033;-85
2022/12/20 11:32:41;;;;;;;6.57;3.97;;;;;;;10.59;100.00;67942.06;5010534;28;20050;-85
2022/12/20 11:35:25;;;;;;;7.07;3.53;;;;;;;10.58;100.00;67940.91;4993723;28;20045;-85
2022/12/20 11:38:08;;;;;;;4.93;3.15;;;;;;;10.57;100.00;67940.34;5007001;28;20043;-85
2022/12/20 11:40:49;;;;;;;6.60;3.10;;;;;;;10.60;100.00;67946.41;5005766;28;20038;-85
2022/12/20 11:43:14;;;;;;;6.28;3.10;;;;;;;;;;5009404;28;20050;-85
2022/12/20 11:46:03;;;;;;;5.27;3.60;;;;;;;10.53;100.00;67938.47;4995965;28;20050;-85
2022/12/20 11:48:37;;;;;;;;;;;;;;;10.51;100.00;67936.19;4998151;28;20832;-85
2022/12/20 11:51:20;;;;;;;6.72;3.20;;;;;;;10.41;100.00;67924.84;5002498;28;19914;-85
2022/12/20 11:53:55;;;;;;;6.68;3.13;;;;;;;10.42;100.00;67923.34;4992179;28;20061;-85
2022/12/20 11:56:28;;;;;;;4.57;3.05;;;;;;;10.45;100.00;67928.84;5016313;28;20053;-84
2022/12/20 11:59:09;;;;;;;5.72;3.30;;;;;;;10.43;100.00;67927.13;5025518;28;20064;-84
2022/12/20 12:01:40;;;;;;;8.02;3.65;;;;;;;10.45;100.00;67934.16;5024969;28;20038;-84
2022/12/20 12:04:13;;;;;;;4.78;3.55;;;;;;;10.46;100.00;67930.53;5030943;28;20049;-84
2022/12/20 12:07:14;;;;;;;5.05;3.05;;;;;;;10.44;100.00;67928.25;5027562;28;20038;-84